Grant Town, WV (26574)

1:31 PM EDT on September 01, 2015 (GMT -0400)
East Fairmont | | Change Station
CLOSE
Current Station
Personal Weather Station
Location: Fairmont, WV
Elevation: 1004 ft
Nearby Weather Stations

Elev 1004 ft 39.48 °N, 80.13 °W | Updated 1 minute ago

Partly Cloudy
Partly Cloudy
97.9 °F
Feels Like 103 °F
N
3.2
Wind Variable Wind from West

Today
High -- | Low -- °F
--% Chance of Precip.
Yesterday
High -- | Low -- °F
Precip. -- in
6:48 AM 7:52 PM
Waning Gibbous, 87% visible
Pressure 30.12 in
Visibility 10.0 miles
Clouds Scattered Clouds 4700 ft
Heat Index 103 °F
Dew Point 68 °F
Humidity 38%
Rainfall 0.00 in
Snow Depth Not available.
UV 8 out of 12
Pollen 9.70 out of 12
Air Quality Not available.
Flu Activity Not available.
METAR KMGW 011653Z VRB03KT 10SM SCT047 31/17 A3015 RMK AO2 SLP197 T03060172
Pressure 30.12 in
Visibility 10.0 miles
Clouds Scattered Clouds 4700 ft
Heat Index 103 °F
Dew Point 68 °F
Humidity 38%
Rainfall 0.00 in
Snow Depth Not available.
UV 8 out of 12
Pollen 9.70 out of 12
Air Quality Not available.
Flu Activity Not available.
METAR KMGW 011653Z VRB03KT 10SM SCT047 31/17 A3015 RMK AO2 SLP197 T03060172

10-Day Weather Forecast

×

Almanac

Astronomy

Sep. 01, 2015 Rise Set
Actual Time
Civil Twilight
Nautical Twilight
Astronomical Twilight
Moon
Length of Visible Light
Length of Day
Tomorrow will be .
, % of the Moon is Illuminated

Today's Extremes

State Highs State Lows

Community

WunderPhotos

Upload Photos

1,851,568 photos uploaded!

WunderBlogs® & News

Nearby

Air Quality

  Air Quality AQ Index Pollutant
Not available.

Snow Depth

Station Depth Elevation

Earthquake Activity

City Distance Mag. Time & Date
Minimum magnitude displayed is 2.5.

Coastal Water Temperatures

Place Temperature

Stations

Nearby Weather Stations

Station Location Temp. Windchill Dew Point Humidity Wind Precip. Elev Updated Type